createdAt,value
2019-02-11T00:01:35.515Z,4.90
2019-02-11T00:04:06.464Z,4.80
2019-02-11T00:06:37.488Z,4.80
2019-02-11T00:09:09.923Z,4.80
2019-02-11T00:11:40.895Z,4.80
2019-02-11T00:14:11.862Z,4.90
2019-02-11T00:16:42.781Z,4.80
2019-02-11T00:19:13.839Z,4.80
2019-02-11T00:21:44.873Z,4.80
2019-02-11T00:24:15.845Z,4.80
2019-02-11T00:26:46.733Z,4.80
2019-02-11T00:29:17.404Z,4.70
2019-02-11T00:31:48.328Z,4.80
2019-02-11T00:34:19.386Z,4.80
2019-02-11T00:36:50.307Z,4.70
2019-02-11T00:39:21.266Z,4.80
2019-02-11T00:41:52.176Z,4.70
2019-02-11T00:44:23.168Z,4.70
2019-02-11T00:46:54.165Z,4.70
2019-02-11T00:49:25.134Z,4.60
2019-02-11T00:51:56.252Z,4.70
2019-02-11T00:54:27.321Z,4.60
2019-02-11T00:56:58.225Z,4.60
2019-02-11T00:59:29.084Z,4.50
2019-02-11T01:02:00.122Z,4.50
2019-02-11T01:04:31.176Z,4.50
2019-02-11T01:07:02.093Z,4.40
2019-02-11T01:09:33.048Z,4.40
2019-02-11T01:12:03.981Z,4.50
2019-02-11T01:14:35.036Z,4.50
2019-02-11T01:17:06.068Z,4.40
2019-02-11T01:19:37.052Z,4.30
2019-02-11T01:22:07.936Z,4.40
2019-02-11T01:24:38.780Z,4.40
2019-02-11T01:27:09.924Z,4.30
2019-02-11T01:29:40.988Z,4.30
2019-02-11T01:32:11.901Z,4.40
2019-02-11T01:34:42.873Z,4.30
2019-02-11T01:37:13.894Z,4.30
2019-02-11T01:39:44.960Z,4.20
2019-02-11T01:42:15.885Z,4.30
2019-02-11T01:44:46.844Z,4.30
2019-02-11T01:47:17.741Z,4.20
2019-02-11T01:49:48.820Z,4.20
2019-02-11T01:52:19.845Z,4.20
2019-02-11T01:54:50.784Z,4.10
2019-02-11T01:57:21.961Z,4.20
2019-02-11T01:59:52.882Z,4.20
2019-02-11T02:02:23.799Z,4.20
2019-02-11T02:04:54.748Z,4.10
2019-02-11T02:07:25.668Z,4.00
2019-02-11T02:09:56.748Z,4.00
2019-02-11T02:12:27.348Z,4.00
2019-02-11T02:14:57.907Z,4.10
2019-02-11T02:17:28.928Z,4.00
2019-02-11T02:20:00.009Z,4.00
2019-02-11T02:22:30.822Z,4.00
2019-02-11T02:25:01.771Z,4.00
2019-02-11T02:27:32.688Z,4.10
2019-02-11T02:30:03.770Z,4.00
2019-02-11T02:32:34.781Z,4.10
2019-02-11T02:35:05.679Z,4.00
2019-02-11T02:37:36.540Z,4.00
2019-02-11T02:40:07.616Z,4.00
2019-02-11T02:42:38.642Z,4.10
2019-02-11T02:45:10.303Z,4.10
2019-02-11T02:47:41.233Z,4.10
2019-02-11T02:50:12.289Z,4.20
2019-02-11T02:52:43.316Z,4.20
2019-02-11T02:55:14.257Z,4.20
2019-02-11T02:57:45.192Z,4.20
2019-02-11T03:00:16.043Z,4.20
2019-02-11T03:02:47.081Z,4.20
2019-02-11T03:05:18.144Z,4.30
2019-02-11T03:07:49.045Z,4.30
2019-02-11T03:10:19.912Z,4.20
2019-02-11T03:12:50.841Z,4.20
2019-02-11T03:15:22.001Z,4.20
2019-02-11T03:17:52.933Z,4.20
2019-02-11T03:20:23.888Z,4.10
2019-02-11T03:22:54.796Z,4.20
2019-02-11T03:25:25.972Z,4.20
2019-02-11T03:27:57.001Z,4.30
2019-02-11T03:30:27.942Z,4.30
2019-02-11T03:32:59.075Z,4.30
2019-02-11T03:35:30.129Z,4.30
2019-02-11T03:38:01.067Z,4.30
2019-02-11T03:40:32.317Z,4.20
2019-02-11T03:43:03.872Z,4.30
2019-02-11T03:45:34.805Z,4.30
2019-02-11T03:48:05.742Z,4.30
2019-02-11T03:50:36.788Z,4.40
2019-02-11T03:53:07.824Z,4.40
2019-02-11T03:55:38.576Z,4.40
2019-02-11T03:58:09.502Z,4.40
2019-02-11T04:00:40.542Z,4.40
2019-02-11T04:03:11.466Z,4.40
2019-02-11T04:05:42.522Z,4.40
2019-02-11T04:08:13.564Z,4.30
2019-02-11T04:10:44.556Z,4.30
2019-02-11T04:13:15.445Z,4.40
2019-02-11T04:15:46.315Z,4.40
2019-02-11T04:18:17.210Z,4.40
2019-02-11T04:20:49.132Z,4.40
2019-02-11T04:23:20.235Z,4.40
2019-02-11T04:25:51.287Z,4.40
2019-02-11T04:28:21.902Z,4.30
2019-02-11T04:30:52.464Z,4.30
2019-02-11T04:33:23.388Z,4.30
2019-02-11T04:35:54.350Z,4.30
2019-02-11T04:38:24.952Z,4.30
2019-02-11T04:40:56.063Z,4.30
2019-02-11T04:43:26.928Z,4.30
2019-02-11T04:45:57.893Z,4.30
2019-02-11T04:48:28.800Z,4.30
2019-02-11T04:50:59.865Z,4.30
2019-02-11T04:53:30.802Z,4.30
2019-02-11T04:56:01.735Z,4.30
2019-02-11T04:58:32.561Z,4.30
2019-02-11T05:01:03.115Z,4.30
2019-02-11T05:03:33.783Z,4.30
2019-02-11T05:06:04.767Z,4.40
2019-02-11T05:08:35.816Z,4.30
2019-02-11T05:11:06.890Z,4.30
2019-02-11T05:13:39.283Z,4.30
2019-02-11T05:16:09.988Z,4.30
2019-02-11T05:18:42.585Z,4.30
2019-02-11T05:21:13.179Z,4.30
2019-02-11T05:23:43.732Z,4.30
2019-02-11T05:26:14.320Z,4.40
2019-02-11T05:28:45.298Z,4.30
2019-02-11T05:31:17.660Z,4.30
2019-02-11T05:33:48.680Z,4.30
2019-02-11T05:36:19.941Z,4.30
2019-02-11T05:38:51.080Z,4.20
2019-02-11T05:41:21.945Z,4.30
2019-02-11T05:43:53.986Z,4.20
2019-02-11T05:46:25.091Z,4.30
2019-02-11T05:48:55.694Z,4.30
2019-02-11T05:51:26.639Z,4.30
2019-02-11T05:53:57.649Z,4.30
2019-02-11T05:56:28.804Z,4.20
2019-02-11T05:58:59.751Z,4.30
2019-02-11T06:01:30.700Z,4.20
2019-02-11T06:04:01.616Z,4.30
2019-02-11T06:06:32.580Z,4.30
2019-02-11T06:09:04.471Z,4.20
2019-02-11T06:11:35.373Z,4.30
2019-02-11T06:14:06.281Z,4.20
2019-02-11T06:16:37.352Z,4.20
2019-02-11T06:19:08.393Z,4.20
2019-02-11T06:21:39.320Z,4.20
2019-02-11T06:24:10.245Z,4.20
2019-02-11T06:26:41.227Z,4.10
2019-02-11T06:29:12.260Z,4.00
2019-02-11T06:31:43.316Z,4.00
2019-02-11T06:34:14.225Z,4.00
2019-02-11T06:36:45.188Z,4.00
2019-02-11T06:39:16.320Z,4.00
2019-02-11T06:41:47.376Z,3.90
2019-02-11T06:44:18.404Z,4.00
2019-02-11T06:46:49.344Z,4.00
2019-02-11T06:49:20.288Z,3.90
2019-02-11T06:51:51.339Z,3.90
2019-02-11T06:54:22.249Z,3.90
2019-02-11T06:56:53.209Z,3.90
2019-02-11T06:59:24.140Z,3.90
2019-02-11T07:01:55.098Z,4.00
2019-02-11T07:04:26.024Z,4.00
2019-02-11T07:06:56.977Z,4.00
2019-02-11T07:09:28.218Z,4.00
2019-02-11T07:11:59.178Z,3.90
2019-02-11T07:14:30.080Z,3.90
2019-02-11T07:17:01.139Z,4.00
2019-02-11T07:19:32.189Z,4.00
2019-02-11T07:22:03.272Z,3.90
2019-02-11T07:24:34.262Z,4.00
2019-02-11T07:27:05.329Z,4.00
2019-02-11T07:29:36.644Z,4.00
2019-02-11T07:32:07.591Z,3.90
2019-02-11T07:34:38.513Z,3.90
2019-02-11T07:37:09.383Z,4.00
2019-02-11T07:39:40.414Z,3.90
2019-02-11T07:42:18.244Z,3.90
2019-02-11T07:44:57.756Z,4.00
2019-02-11T07:47:28.832Z,4.00
2019-02-11T07:49:59.827Z,4.00
2019-02-11T07:52:30.805Z,4.00
2019-02-11T07:55:01.889Z,4.00
2019-02-11T07:57:32.980Z,4.00
2019-02-11T08:00:03.996Z,3.90
2019-02-11T08:02:34.957Z,4.00
2019-02-11T08:05:05.981Z,4.00
2019-02-11T08:07:37.051Z,4.00
2019-02-11T08:10:08.375Z,4.10
2019-02-11T08:12:39.161Z,4.20
2019-02-11T08:15:10.055Z,4.20
2019-02-11T08:17:40.954Z,4.20
2019-02-11T08:20:12.036Z,4.20
2019-02-11T08:22:43.248Z,4.20
2019-02-11T08:25:14.225Z,4.10
2019-02-11T08:27:45.180Z,4.00
2019-02-11T08:30:16.217Z,4.10
2019-02-11T08:32:47.259Z,4.10
2019-02-11T08:35:18.186Z,4.20
2019-02-11T08:37:49.145Z,4.10
2019-02-11T08:40:20.179Z,4.20
2019-02-11T08:42:51.236Z,4.20
2019-02-11T08:45:22.176Z,4.20
2019-02-11T08:47:52.814Z,4.20
2019-02-11T08:50:23.820Z,4.10
2019-02-11T08:52:54.890Z,4.00
2019-02-11T08:55:25.809Z,4.00
2019-02-11T08:57:56.753Z,4.00
2019-02-11T09:00:27.796Z,4.00
2019-02-11T09:02:58.743Z,4.20
2019-02-11T09:05:29.682Z,4.20
2019-02-11T09:08:00.992Z,4.20
2019-02-11T09:10:31.972Z,4.20
2019-02-11T09:13:02.911Z,4.20
2019-02-11T09:15:33.852Z,4.20
2019-02-11T09:18:04.792Z,4.20
2019-02-11T09:20:35.716Z,4.20
2019-02-11T09:23:06.680Z,4.30
2019-02-11T09:25:37.807Z,4.30
2019-02-11T09:28:08.895Z,4.20
2019-02-11T09:30:39.954Z,4.20
2019-02-11T09:33:10.901Z,4.20
2019-02-11T09:35:41.877Z,4.10
2019-02-11T09:38:12.853Z,4.10
2019-02-11T09:40:43.958Z,4.10
2019-02-11T09:43:15.016Z,4.10
2019-02-11T09:45:46.046Z,4.10
2019-02-11T09:48:17.005Z,4.10
2019-02-11T09:50:50.114Z,4.10
2019-02-11T09:53:21.141Z,4.00
2019-02-11T09:55:52.069Z,4.00
2019-02-11T09:58:23.008Z,4.10
2019-02-11T10:00:54.046Z,4.10
2019-02-11T10:03:25.091Z,4.10
2019-02-11T10:05:56.008Z,4.20
2019-02-11T10:08:26.975Z,4.10
2019-02-11T10:10:57.893Z,4.10
2019-02-11T10:13:28.873Z,4.10
2019-02-11T10:15:59.782Z,4.10
2019-02-11T10:18:30.746Z,4.10
2019-02-11T10:21:01.784Z,4.10
2019-02-11T10:23:32.838Z,4.10
2019-02-11T10:26:03.749Z,4.10
2019-02-11T10:28:34.717Z,4.20
2019-02-11T10:31:05.622Z,4.20
2019-02-11T10:33:36.580Z,4.10
2019-02-11T10:36:07.508Z,4.10
2019-02-11T10:38:38.461Z,4.10
2019-02-11T10:41:09.594Z,4.20
2019-02-11T10:43:40.665Z,4.10
2019-02-11T10:46:11.569Z,4.10
2019-02-11T10:48:42.528Z,4.10
2019-02-11T10:51:13.451Z,3.90
2019-02-11T10:53:44.433Z,4.00
2019-02-11T10:56:15.445Z,4.00
2019-02-11T10:58:46.496Z,4.20
2019-02-11T11:01:17.413Z,4.30
2019-02-11T11:03:48.380Z,4.20
2019-02-11T11:06:19.412Z,4.30
2019-02-11T11:08:50.460Z,4.30
2019-02-11T11:11:22.102Z,4.30
2019-02-11T11:13:52.672Z,4.20
2019-02-11T11:16:29.357Z,4.20
2019-02-11T11:18:56.195Z,4.30
2019-02-11T11:21:27.304Z,4.20
2019-02-11T11:23:58.369Z,4.20
2019-02-11T11:26:29.380Z,4.10
2019-02-11T11:29:00.476Z,4.20
2019-02-11T11:31:31.469Z,4.10
2019-02-11T11:34:02.459Z,4.10
2019-02-11T11:36:33.553Z,4.20
2019-02-11T11:39:06.493Z,4.00
2019-02-11T11:41:37.372Z,4.00
2019-02-11T11:44:08.455Z,4.00
2019-02-11T11:46:46.948Z,3.90
2019-02-11T11:49:11.953Z,4.00
2019-02-11T11:51:42.869Z,4.10
2019-02-11T11:54:13.723Z,4.10
2019-02-11T11:56:44.763Z,4.10
2019-02-11T11:59:15.559Z,4.10
2019-02-11T12:01:47.557Z,4.20
2019-02-11T12:04:18.628Z,4.10
2019-02-11T12:06:49.665Z,4.10
2019-02-11T12:09:20.622Z,4.00
2019-02-11T12:11:51.527Z,4.10
2019-02-11T12:14:22.477Z,4.00
2019-02-11T12:16:57.734Z,4.00
2019-02-11T12:19:26.407Z,4.00
2019-02-11T12:21:57.328Z,4.10
2019-02-11T12:24:28.315Z,4.00
2019-02-11T12:26:59.192Z,4.10
2019-02-11T12:29:30.078Z,4.10
2019-02-11T12:32:01.209Z,4.00
2019-02-11T12:34:32.161Z,3.90
2019-02-11T12:37:03.076Z,4.00
2019-02-11T12:39:34.044Z,4.00
2019-02-11T12:42:04.938Z,4.00
2019-02-11T12:44:35.874Z,4.00
2019-02-11T12:47:13.844Z,4.10
2019-02-11T12:49:39.333Z,3.90
2019-02-11T12:52:10.358Z,4.00
2019-02-11T12:54:41.416Z,4.00
2019-02-11T12:57:12.340Z,4.10
2019-02-11T12:59:43.310Z,4.10
2019-02-11T13:02:14.281Z,4.10
2019-02-11T13:04:45.192Z,4.10
2019-02-11T13:07:16.198Z,4.00
2019-02-11T13:09:47.263Z,4.00
2019-02-11T13:12:18.286Z,4.00
2019-02-11T13:14:49.353Z,4.00
2019-02-11T13:17:33.406Z,4.00
2019-02-11T13:20:07.537Z,3.90
2019-02-11T13:22:25.418Z,3.90
2019-02-11T13:24:56.385Z,3.90
2019-02-11T13:27:27.298Z,3.90
2019-02-11T13:29:58.177Z,3.90
2019-02-11T13:32:29.186Z,3.80
2019-02-11T13:35:00.908Z,3.80
2019-02-11T13:37:31.774Z,3.80
2019-02-11T13:40:02.526Z,3.90
2019-02-11T13:42:34.581Z,3.80
2019-02-11T13:45:11.261Z,3.80
2019-02-11T13:47:53.549Z,3.70
2019-02-11T13:50:17.939Z,3.70
2019-02-11T13:52:49.250Z,3.80
2019-02-11T13:55:20.145Z,3.80
2019-02-11T13:57:51.272Z,3.90
2019-02-11T14:00:26.504Z,3.90
2019-02-11T14:02:57.776Z,3.90
2019-02-11T14:05:28.992Z,3.80
2019-02-11T14:08:01.140Z,3.80
2019-02-11T14:10:32.086Z,3.70
2019-02-11T14:13:03.505Z,3.70
2019-02-11T14:15:34.542Z,3.80
2019-02-11T14:18:13.925Z,3.70
2019-02-11T14:20:43.273Z,3.70
2019-02-11T14:23:14.316Z,3.60
2019-02-11T14:25:47.228Z,3.70
2019-02-11T14:28:17.626Z,3.80
2019-02-11T14:30:48.564Z,3.70
2019-02-11T14:33:19.196Z,3.70
2019-02-11T14:35:50.325Z,3.80
2019-02-11T14:38:21.478Z,3.70
2019-02-11T14:40:52.635Z,3.80
2019-02-11T14:43:23.706Z,3.70
2019-02-11T14:45:54.846Z,3.70
2019-02-11T14:48:28.582Z,3.70
2019-02-11T14:50:58.437Z,3.80
2019-02-11T14:53:29.672Z,3.70
2019-02-11T14:56:01.264Z,3.70
2019-02-11T14:58:32.148Z,3.70
2019-02-11T15:01:03.117Z,3.70
2019-02-11T15:03:34.035Z,3.70
2019-02-11T15:06:04.893Z,3.70
2019-02-11T15:08:35.834Z,3.70
2019-02-11T15:11:06.784Z,3.70
2019-02-11T15:13:38.838Z,3.70
2019-02-11T15:16:10.812Z,3.70
2019-02-11T15:18:41.532Z,3.70
2019-02-11T15:21:12.885Z,3.80
2019-02-11T15:23:43.818Z,3.70
2019-02-11T15:26:14.992Z,3.80
2019-02-11T15:28:46.148Z,3.90
2019-02-11T15:31:17.204Z,3.90
2019-02-11T15:33:49.216Z,3.80
2019-02-11T15:36:20.402Z,3.80
2019-02-11T15:38:51.405Z,3.80
2019-02-11T15:41:22.360Z,3.80
2019-02-11T15:43:53.272Z,3.80
2019-02-11T15:46:24.049Z,3.80
2019-02-11T15:48:54.973Z,3.80
2019-02-11T15:51:25.976Z,3.80
2019-02-11T15:53:56.942Z,3.80
2019-02-11T15:56:28.021Z,3.80
2019-02-11T15:58:59.021Z,3.80
2019-02-11T16:01:30.104Z,3.90
2019-02-11T16:04:00.991Z,3.80
2019-02-11T16:06:37.951Z,3.80
2019-02-11T16:09:05.123Z,3.80
2019-02-11T16:11:36.202Z,3.80
2019-02-11T16:14:06.777Z,3.80
2019-02-11T16:16:37.664Z,3.90
2019-02-11T16:19:08.584Z,3.80
2019-02-11T16:21:39.581Z,3.80
2019-02-11T16:24:11.079Z,3.80
2019-02-11T16:26:42.048Z,3.90
2019-02-11T16:29:12.949Z,3.80
2019-02-11T16:31:43.920Z,3.80
2019-02-11T16:34:13.757Z,3.80
2019-02-11T16:36:44.682Z,3.80
2019-02-11T16:39:15.581Z,3.80
2019-02-11T16:41:46.664Z,3.80
2019-02-11T16:44:17.608Z,3.80
2019-02-11T16:46:48.656Z,3.90
2019-02-11T16:49:19.570Z,3.90
2019-02-11T16:51:50.526Z,3.90
2019-02-11T16:54:21.428Z,4.00
2019-02-11T16:56:52.400Z,3.90
2019-02-11T16:59:23.337Z,3.90
2019-02-11T17:01:54.421Z,3.90
2019-02-11T17:04:25.658Z,3.90
2019-02-11T17:06:56.882Z,3.90
2019-02-11T17:09:27.712Z,3.90
2019-02-11T17:11:59.402Z,3.90
2019-02-11T17:14:30.442Z,3.80
2019-02-11T17:17:01.274Z,3.90
2019-02-11T17:19:31.796Z,3.80
2019-02-11T17:22:02.536Z,3.90
2019-02-11T17:24:33.445Z,3.90
2019-02-11T17:27:04.078Z,4.00
2019-02-11T17:29:34.927Z,4.00
2019-02-11T17:32:05.868Z,4.00
2019-02-11T17:34:36.791Z,4.00
2019-02-11T17:37:09.759Z,3.90
2019-02-11T17:39:40.330Z,4.00
2019-02-11T17:42:12.464Z,4.00
2019-02-11T17:44:44.158Z,4.00
2019-02-11T17:47:16.251Z,3.90
2019-02-11T17:49:46.933Z,4.00
2019-02-11T17:52:17.734Z,4.00
2019-02-11T17:54:48.707Z,4.00
2019-02-11T17:57:19.248Z,4.00
2019-02-11T17:59:49.831Z,4.00
2019-02-11T18:02:20.414Z,4.00
2019-02-11T18:04:50.947Z,4.00
2019-02-11T18:07:21.579Z,3.90
2019-02-11T18:09:53.181Z,3.90
2019-02-11T18:12:23.764Z,4.00
2019-02-11T18:14:54.398Z,4.00
2019-02-11T18:17:25.022Z,4.00
2019-02-11T18:19:55.770Z,4.10
2019-02-11T18:22:26.319Z,4.10
2019-02-11T18:24:56.920Z,4.10
2019-02-11T18:27:27.623Z,4.10
2019-02-11T18:29:58.427Z,4.10
2019-02-11T18:32:29.377Z,4.10
2019-02-11T18:35:00.568Z,4.10
2019-02-11T18:37:31.327Z,4.10
2019-02-11T18:40:02.109Z,4.10
2019-02-11T18:42:34.676Z,4.10
2019-02-11T18:45:06.687Z,4.20
2019-02-11T18:47:37.930Z,4.20
2019-02-11T18:50:09.966Z,4.20
2019-02-11T18:52:41.177Z,4.20
2019-02-11T18:55:12.637Z,4.20
2019-02-11T18:57:43.573Z,4.20
2019-02-11T19:00:16.682Z,4.30
2019-02-11T19:02:48.330Z,4.20
2019-02-11T19:05:19.617Z,4.20
2019-02-11T19:07:50.189Z,4.20
2019-02-11T19:10:20.796Z,4.20
2019-02-11T19:12:51.485Z,4.20
2019-02-11T19:15:22.074Z,4.20
2019-02-11T19:17:53.444Z,4.20
2019-02-11T19:20:24.168Z,4.20
2019-02-11T19:22:55.114Z,4.30
2019-02-11T19:25:26.042Z,4.30
2019-02-11T19:27:57.005Z,4.30
2019-02-11T19:30:27.934Z,4.30
2019-02-11T19:32:58.469Z,4.30
2019-02-11T19:35:29.496Z,4.30
2019-02-11T19:38:00.487Z,4.30
2019-02-11T19:40:31.374Z,4.20
2019-02-11T19:43:02.016Z,4.30
2019-02-11T19:45:32.963Z,4.30
2019-02-11T19:48:03.900Z,4.30
2019-02-11T19:50:34.857Z,4.30
2019-02-11T19:53:05.893Z,4.30
2019-02-11T19:55:36.825Z,4.30
2019-02-11T19:58:07.762Z,4.30
2019-02-11T20:00:38.684Z,4.30
2019-02-11T20:03:09.640Z,4.30
2019-02-11T20:05:40.586Z,4.30
2019-02-11T20:08:11.624Z,4.30
2019-02-11T20:10:42.466Z,4.30
2019-02-11T20:13:13.466Z,4.30
2019-02-11T20:15:44.179Z,4.30
2019-02-11T20:18:15.133Z,4.30
2019-02-11T20:20:45.748Z,4.40
2019-02-11T20:23:17.626Z,4.40
2019-02-11T20:25:48.754Z,4.40
2019-02-11T20:28:19.763Z,4.40
2019-02-11T20:30:50.378Z,4.40
2019-02-11T20:33:20.910Z,4.40
2019-02-11T20:35:51.520Z,4.30
2019-02-11T20:38:22.113Z,4.30
2019-02-11T20:40:52.843Z,4.40
2019-02-11T20:43:23.778Z,4.40
2019-02-11T20:45:54.662Z,4.40
2019-02-11T20:48:25.256Z,4.40
2019-02-11T20:50:55.768Z,4.40
2019-02-11T20:53:26.380Z,4.40
2019-02-11T20:55:56.927Z,4.40
2019-02-11T20:58:27.569Z,4.40
2019-02-11T21:00:58.168Z,4.40
2019-02-11T21:03:28.937Z,4.50
2019-02-11T21:05:59.860Z,4.40
2019-02-11T21:08:30.792Z,4.50
2019-02-11T21:11:01.756Z,4.50
2019-02-11T21:13:32.600Z,4.40
2019-02-11T21:16:03.501Z,4.40
2019-02-11T21:18:34.237Z,4.40
2019-02-11T21:21:04.812Z,4.40
2019-02-11T21:23:35.656Z,4.40
2019-02-11T21:26:06.553Z,4.40
2019-02-11T21:28:37.097Z,4.40
2019-02-11T21:31:07.599Z,4.40
2019-02-11T21:33:39.118Z,4.40
2019-02-11T21:36:09.700Z,4.40
2019-02-11T21:38:40.259Z,4.40
2019-02-11T21:41:11.177Z,4.40
2019-02-11T21:43:42.108Z,4.40
2019-02-11T21:46:13.045Z,4.30
2019-02-11T21:48:44.080Z,4.30
2019-02-11T21:51:15.031Z,4.30
2019-02-11T21:53:46.018Z,4.30
2019-02-11T21:56:17.631Z,4.30
2019-02-11T21:58:48.909Z,4.40
2019-02-11T22:01:19.489Z,4.40
2019-02-11T22:03:50.355Z,4.30
2019-02-11T22:06:21.294Z,4.30
2019-02-11T22:08:51.842Z,4.30
2019-02-11T22:11:22.445Z,4.30
2019-02-11T22:13:53.421Z,4.30
2019-02-11T22:16:24.440Z,4.30
2019-02-11T22:18:57.196Z,4.30
2019-02-11T22:21:28.156Z,4.20
2019-02-11T22:23:59.310Z,4.30
2019-02-11T22:26:30.168Z,4.30
2019-02-11T22:29:01.078Z,4.30
2019-02-11T22:31:32.005Z,4.20
2019-02-11T22:34:02.869Z,4.10
2019-02-11T22:36:33.793Z,4.10
2019-02-11T22:39:05.575Z,4.10
2019-02-11T22:41:36.480Z,4.10
2019-02-11T22:44:07.359Z,4.20
2019-02-11T22:46:38.470Z,4.20
2019-02-11T22:49:09.533Z,4.10
2019-02-11T22:51:40.453Z,4.20
2019-02-11T22:54:11.209Z,4.10
2019-02-11T22:56:43.279Z,4.10
2019-02-11T22:59:14.328Z,3.90
2019-02-11T23:01:45.436Z,3.90
2019-02-11T23:04:16.395Z,3.90
2019-02-11T23:06:47.334Z,4.00
2019-02-11T23:09:18.175Z,4.10
2019-02-11T23:11:49.396Z,4.10
2019-02-11T23:14:20.367Z,4.10
2019-02-11T23:16:51.400Z,4.10
2019-02-11T23:19:22.348Z,4.00
2019-02-11T23:21:53.284Z,4.00
2019-02-11T23:24:23.967Z,4.00
2019-02-11T23:26:54.948Z,3.90
2019-02-11T23:29:25.607Z,3.80
2019-02-11T23:31:56.629Z,3.80
2019-02-11T23:34:27.837Z,3.70
2019-02-11T23:36:58.810Z,3.60
2019-02-11T23:39:29.977Z,3.60
2019-02-11T23:42:01.004Z,3.50
2019-02-11T23:44:31.925Z,3.50
2019-02-11T23:47:02.769Z,3.50
2019-02-11T23:49:33.624Z,3.60
2019-02-11T23:52:04.564Z,3.60
2019-02-11T23:54:35.630Z,3.50
2019-02-11T23:57:06.531Z,3.50
2019-02-11T23:59:37.596Z,3.50
